createdAt,value
2023-03-31T00:00:58.309Z,83.43
2023-03-31T00:03:25.577Z,83.31
2023-03-31T00:06:00.005Z,83.67
2023-03-31T00:08:30.684Z,84.00
2023-03-31T00:11:02.220Z,83.76
2023-03-31T00:13:30.495Z,83.66
2023-03-31T00:16:01.903Z,83.31
2023-03-31T00:18:30.131Z,83.08
2023-03-31T00:21:29.989Z,82.93
2023-03-31T00:24:02.744Z,83.05
2023-03-31T00:26:30.261Z,83.16
2023-03-31T00:28:57.910Z,83.69
2023-03-31T00:31:25.070Z,83.41
2023-03-31T00:33:54.667Z,83.75
2023-03-31T00:36:27.392Z,84.09
2023-03-31T00:39:02.636Z,84.40
2023-03-31T00:41:30.689Z,84.33
2023-03-31T00:44:27.829Z,84.33
2023-03-31T00:47:02.426Z,84.33
2023-03-31T00:49:40.754Z,84.79
2023-03-31T00:52:10.971Z,84.86
2023-03-31T00:54:38.531Z,85.16
2023-03-31T00:57:06.893Z,84.66
2023-03-31T00:59:38.423Z,84.78
2023-03-31T01:02:05.864Z,85.23
2023-03-31T01:04:40.328Z,84.78
2023-03-31T01:07:19.661Z,84.68
2023-03-31T01:09:47.624Z,84.85
2023-03-31T01:12:17.465Z,84.85
2023-03-31T01:14:44.507Z,85.11
2023-03-31T01:17:19.441Z,85.31
2023-03-31T01:20:18.312Z,85.21
2023-03-31T01:23:05.596Z,84.95
2023-03-31T01:25:54.679Z,84.95
2023-03-31T01:28:44.620Z,85.30
2023-03-31T01:31:30.497Z,85.62
2023-03-31T01:34:15.558Z,85.36
2023-03-31T01:37:09.567Z,85.58
2023-03-31T01:39:55.104Z,86.06
2023-03-31T01:42:32.645Z,86.37
2023-03-31T01:45:12.489Z,86.34
2023-03-31T01:47:59.532Z,86.86
2023-03-31T01:50:47.254Z,87.17
2023-03-31T01:53:31.700Z,86.87
2023-03-31T01:56:16.160Z,86.81
2023-03-31T01:58:47.926Z,86.83
2023-03-31T02:01:38.108Z,86.97
2023-03-31T02:04:31.385Z,86.41
2023-03-31T02:07:04.186Z,86.39
2023-03-31T02:09:35.158Z,86.00
2023-03-31T02:12:06.378Z,86.02
2023-03-31T02:14:34.945Z,85.85
2023-03-31T02:17:03.968Z,85.89
2023-03-31T02:19:34.855Z,86.21
2023-03-31T02:22:03.666Z,86.21
2023-03-31T02:24:31.661Z,86.39
2023-03-31T02:27:06.813Z,86.34
2023-03-31T02:29:34.433Z,86.10
2023-03-31T02:32:16.985Z,86.37
2023-03-31T02:34:44.002Z,86.89
2023-03-31T02:37:11.257Z,87.00
2023-03-31T02:39:40.747Z,86.95
2023-03-31T02:42:09.010Z,87.53
2023-03-31T02:44:40.292Z,87.89
2023-03-31T02:47:13.731Z,87.77
2023-03-31T02:49:57.093Z,87.64
2023-03-31T02:52:34.897Z,87.65
2023-03-31T02:55:23.657Z,87.61
2023-03-31T02:58:18.464Z,87.88
2023-03-31T03:00:53.044Z,88.08
2023-03-31T03:03:31.610Z,88.32
2023-03-31T03:06:30.770Z,88.66
2023-03-31T03:09:13.222Z,88.62
2023-03-31T03:12:16.097Z,88.40
2023-03-31T03:14:47.479Z,88.61
2023-03-31T03:17:39.632Z,88.71
2023-03-31T03:20:09.417Z,88.72
2023-03-31T03:22:39.800Z,88.64
2023-03-31T03:25:09.596Z,89.41
2023-03-31T03:27:37.549Z,89.41
2023-03-31T03:30:06.978Z,89.47
2023-03-31T03:32:34.142Z,89.44
2023-03-31T03:35:02.333Z,89.42
2023-03-31T03:37:29.869Z,89.71
2023-03-31T03:39:56.928Z,89.72
2023-03-31T03:42:24.276Z,89.85
2023-03-31T03:44:53.626Z,89.80
2023-03-31T03:47:20.541Z,89.55
2023-03-31T03:49:49.407Z,89.19
2023-03-31T03:52:16.902Z,89.00
2023-03-31T03:54:44.020Z,88.95
2023-03-31T03:57:11.613Z,88.67
2023-03-31T03:59:39.026Z,88.95
2023-03-31T04:02:07.215Z,88.70
2023-03-31T04:04:34.318Z,88.75
2023-03-31T04:07:01.582Z,88.09
2023-03-31T04:09:29.707Z,88.11
2023-03-31T04:11:56.872Z,87.83
2023-03-31T04:14:25.459Z,87.73
2023-03-31T04:16:52.493Z,88.05
2023-03-31T04:19:32.094Z,87.81
2023-03-31T04:27:56.700Z,87.66
2023-03-31T04:30:31.259Z,87.67
2023-03-31T04:33:01.196Z,87.74
2023-03-31T04:36:00.928Z,87.71
2023-03-31T04:38:33.706Z,87.84
2023-03-31T04:41:04.629Z,87.46
2023-03-31T04:43:34.947Z,87.40
2023-03-31T04:46:02.057Z,87.05
2023-03-31T04:48:29.499Z,86.91
2023-03-31T04:50:56.613Z,86.82
2023-03-31T04:53:24.132Z,86.98
2023-03-31T04:55:51.171Z,86.88
2023-03-31T04:58:25.345Z,86.98
2023-03-31T05:00:55.921Z,86.89
2023-03-31T05:03:26.170Z,86.91
2023-03-31T05:05:54.553Z,86.62
2023-03-31T05:08:21.871Z,86.46
2023-03-31T05:10:53.216Z,86.01
2023-03-31T05:13:22.024Z,85.53
2023-03-31T05:15:51.212Z,85.29
2023-03-31T05:18:18.888Z,84.67
2023-03-31T05:20:46.786Z,84.59
2023-03-31T05:23:14.816Z,84.44
2023-03-31T05:25:42.763Z,83.81
2023-03-31T05:28:12.925Z,83.74
2023-03-31T05:30:40.099Z,83.54
2023-03-31T05:33:07.318Z,83.20
2023-03-31T05:35:34.632Z,83.19
2023-03-31T05:38:01.956Z,83.22
2023-03-31T05:40:29.105Z,82.92
2023-03-31T05:42:57.279Z,82.54
2023-03-31T05:45:24.383Z,82.34
2023-03-31T05:47:51.801Z,82.06
2023-03-31T05:50:19.079Z,82.14
2023-03-31T05:52:46.174Z,82.07
2023-03-31T05:55:13.425Z,82.04
2023-03-31T05:57:40.573Z,82.01
2023-03-31T06:00:10.700Z,81.94
2023-03-31T06:02:38.045Z,81.94
2023-03-31T06:05:05.687Z,81.67
2023-03-31T06:07:32.724Z,80.98
2023-03-31T06:09:59.978Z,80.85
2023-03-31T06:12:26.920Z,80.59
2023-03-31T06:14:54.198Z,80.50
2023-03-31T06:17:21.271Z,80.30
2023-03-31T06:19:48.280Z,79.87
2023-03-31T06:22:15.218Z,79.29
2023-03-31T06:24:42.432Z,79.33
2023-03-31T06:27:10.628Z,79.03
2023-03-31T06:29:38.416Z,78.58
2023-03-31T06:34:48.487Z,78.25
2023-03-31T06:37:15.901Z,77.88
2023-03-31T06:39:44.728Z,77.67
2023-03-31T06:42:12.119Z,77.55
2023-03-31T06:44:41.082Z,77.49
2023-03-31T06:47:08.116Z,77.16
2023-03-31T06:49:42.276Z,75.89
2023-03-31T06:52:09.296Z,76.14
2023-03-31T06:54:36.282Z,76.63
2023-03-31T06:57:03.422Z,77.13
2023-03-31T06:59:30.473Z,76.74
2023-03-31T07:01:57.620Z,76.77
2023-03-31T07:04:24.667Z,76.17
2023-03-31T07:06:51.706Z,76.09
2023-03-31T07:09:18.953Z,76.21
2023-03-31T07:11:46.105Z,76.07
2023-03-31T07:14:13.056Z,76.09
2023-03-31T07:16:40.068Z,76.16
2023-03-31T07:19:08.232Z,76.14
2023-03-31T07:21:35.151Z,75.88
2023-03-31T07:24:02.104Z,75.85
2023-03-31T07:26:29.126Z,75.56
2023-03-31T07:28:57.571Z,75.71
2023-03-31T07:31:26.106Z,75.77
2023-03-31T07:33:55.240Z,75.68
2023-03-31T07:36:24.260Z,75.78
2023-03-31T07:38:51.878Z,75.59
2023-03-31T07:41:21.082Z,74.77
2023-03-31T07:43:49.264Z,75.42
2023-03-31T07:46:23.367Z,75.26
2023-03-31T07:48:50.789Z,75.35
2023-03-31T07:51:20.875Z,74.58
2023-03-31T07:53:49.617Z,74.87
2023-03-31T07:56:17.424Z,74.33
2023-03-31T07:58:47.150Z,74.28
2023-03-31T08:01:19.182Z,74.67
2023-03-31T08:03:47.620Z,74.62
2023-03-31T08:06:23.862Z,74.72
2023-03-31T08:08:51.602Z,74.42
2023-03-31T08:11:19.775Z,74.27
2023-03-31T08:13:47.193Z,74.57
2023-03-31T08:16:16.639Z,74.83
2023-03-31T08:18:43.809Z,74.70
2023-03-31T08:21:11.091Z,73.48
2023-03-31T08:23:38.220Z,73.65
2023-03-31T08:26:16.405Z,73.83
2023-03-31T08:28:46.375Z,73.97
2023-03-31T08:31:16.529Z,73.59
2023-03-31T08:33:43.765Z,74.19
2023-03-31T08:36:11.429Z,73.96
2023-03-31T08:38:41.924Z,73.45
2023-03-31T08:41:27.068Z,73.34
2023-03-31T08:43:56.656Z,73.34
2023-03-31T08:46:23.844Z,72.94
2023-03-31T08:48:55.108Z,73.00
2023-03-31T08:51:33.333Z,73.20
2023-03-31T08:54:04.002Z,72.57
2023-03-31T08:56:38.265Z,72.42
2023-03-31T08:59:07.127Z,72.92
2023-03-31T09:01:58.459Z,73.22
2023-03-31T09:04:56.334Z,73.25
2023-03-31T09:07:52.749Z,73.12
2023-03-31T09:10:19.851Z,72.76
2023-03-31T09:13:31.636Z,72.23
2023-03-31T09:16:24.476Z,72.87
2023-03-31T09:18:54.667Z,72.96
2023-03-31T09:21:28.167Z,73.35
2023-03-31T09:24:04.187Z,73.11
2023-03-31T09:26:38.167Z,73.54
2023-03-31T09:29:10.619Z,73.81
2023-03-31T09:31:39.004Z,73.49
2023-03-31T09:34:14.582Z,73.36
2023-03-31T09:36:42.442Z,73.02
2023-03-31T09:39:17.887Z,73.37
2023-03-31T09:41:47.742Z,72.68
2023-03-31T09:44:39.318Z,72.79
2023-03-31T09:47:39.178Z,72.87
2023-03-31T09:50:08.116Z,72.54
2023-03-31T09:52:41.149Z,72.17
2023-03-31T09:55:38.393Z,72.16
2023-03-31T09:58:08.323Z,72.32
2023-03-31T10:00:35.704Z,72.63
2023-03-31T10:03:07.822Z,72.52
2023-03-31T10:05:43.084Z,73.00
2023-03-31T10:08:26.122Z,73.00
2023-03-31T10:10:58.846Z,73.06
2023-03-31T10:13:29.503Z,73.12
2023-03-31T10:16:09.109Z,73.42
2023-03-31T10:18:41.978Z,73.14
2023-03-31T10:21:27.631Z,73.29
2023-03-31T10:23:55.632Z,73.16
2023-03-31T10:26:29.303Z,73.72
2023-03-31T10:28:56.490Z,73.77
2023-03-31T10:31:27.518Z,73.66
2023-03-31T10:33:55.710Z,73.35
2023-03-31T10:36:28.120Z,73.26
2023-03-31T10:38:56.084Z,72.69
2023-03-31T10:41:26.472Z,73.07
2023-03-31T10:43:55.887Z,72.61
2023-03-31T10:46:44.394Z,72.83
2023-03-31T10:49:27.886Z,72.82
2023-03-31T10:51:57.796Z,73.19
2023-03-31T10:54:25.532Z,73.74
2023-03-31T10:56:58.726Z,74.16
2023-03-31T10:59:38.120Z,74.07
2023-03-31T11:02:11.466Z,74.85
2023-03-31T11:05:05.985Z,75.65
2023-03-31T11:07:39.100Z,76.39
2023-03-31T11:10:21.304Z,76.84
2023-03-31T11:13:00.603Z,77.13
2023-03-31T11:15:42.708Z,76.92
2023-03-31T11:18:33.753Z,76.97
2023-03-31T11:21:26.600Z,76.80
2023-03-31T11:24:10.208Z,77.05
2023-03-31T11:26:57.504Z,76.81
2023-03-31T11:29:36.221Z,76.78
2023-03-31T11:32:34.218Z,77.01
2023-03-31T11:35:33.120Z,77.08
2023-03-31T11:38:24.785Z,77.03
2023-03-31T11:41:00.138Z,77.16
2023-03-31T11:43:51.912Z,77.25
2023-03-31T11:46:48.241Z,77.07
2023-03-31T11:49:38.405Z,77.17
2023-03-31T11:52:19.617Z,77.33
2023-03-31T11:55:03.084Z,77.59
2023-03-31T11:57:38.526Z,77.47
2023-03-31T12:00:19.224Z,77.35
2023-03-31T12:03:08.284Z,77.26
2023-03-31T12:05:45.052Z,77.34
2023-03-31T12:08:19.673Z,77.48
2023-03-31T12:11:28.914Z,77.56
2023-03-31T12:14:17.753Z,77.82
2023-03-31T12:16:58.461Z,77.91
2023-03-31T12:19:34.802Z,78.24
2023-03-31T12:22:12.684Z,78.37
2023-03-31T12:24:39.703Z,78.48
2023-03-31T12:27:18.762Z,78.56
2023-03-31T12:29:51.943Z,79.08
2023-03-31T12:32:22.205Z,79.18
2023-03-31T12:35:04.074Z,79.89
2023-03-31T12:38:08.569Z,80.45
2023-03-31T12:41:07.747Z,80.92
2023-03-31T12:44:01.724Z,81.11
2023-03-31T12:47:11.341Z,81.47
2023-03-31T12:50:00.888Z,82.17
2023-03-31T12:52:48.290Z,82.59
2023-03-31T12:55:41.178Z,82.79
2023-03-31T12:58:32.623Z,83.28
2023-03-31T13:01:17.564Z,83.59
2023-03-31T13:03:55.268Z,83.85
2023-03-31T13:06:29.063Z,84.24
2023-03-31T13:09:11.570Z,84.86
2023-03-31T13:11:43.264Z,84.86
2023-03-31T13:14:24.737Z,85.26
2023-03-31T13:16:55.567Z,85.42
2023-03-31T13:19:33.274Z,85.20
2023-03-31T13:22:02.338Z,85.17
2023-03-31T13:24:31.334Z,85.08
2023-03-31T13:27:01.152Z,85.25
2023-03-31T13:29:43.854Z,85.29
2023-03-31T13:32:20.981Z,85.12
2023-03-31T13:34:59.359Z,85.47
2023-03-31T13:37:47.975Z,85.76
2023-03-31T13:40:41.314Z,86.07
2023-03-31T13:43:28.231Z,86.20
2023-03-31T13:46:04.263Z,86.25
2023-03-31T13:48:40.539Z,86.15
2023-03-31T13:51:14.481Z,86.25
2023-03-31T13:54:06.164Z,86.31
2023-03-31T13:57:14.381Z,86.15
2023-03-31T14:00:17.223Z,86.67
2023-03-31T14:03:02.601Z,86.82
2023-03-31T14:05:47.453Z,87.13
2023-03-31T14:08:27.426Z,87.42
2023-03-31T14:10:54.993Z,87.58
2023-03-31T14:13:25.878Z,87.57
2023-03-31T14:16:02.497Z,87.90
2023-03-31T14:18:33.987Z,87.92
2023-03-31T14:21:29.287Z,88.00
2023-03-31T14:24:23.671Z,87.88
2023-03-31T14:26:59.074Z,88.19
2023-03-31T14:29:46.086Z,88.13
2023-03-31T14:32:33.498Z,88.17
2023-03-31T14:38:29.821Z,88.23
2023-03-31T14:41:05.455Z,88.11
2023-03-31T14:43:37.305Z,88.45
2023-03-31T14:46:09.096Z,88.49
2023-03-31T14:48:47.555Z,88.63
2023-03-31T14:51:28.836Z,88.70
2023-03-31T14:57:03.166Z,89.23
2023-03-31T14:59:33.899Z,89.56
2023-03-31T15:02:02.942Z,89.64
2023-03-31T15:04:41.998Z,89.46
2023-03-31T15:07:10.266Z,89.54
2023-03-31T15:09:37.899Z,89.98
2023-03-31T15:12:15.149Z,89.79
2023-03-31T15:15:04.156Z,89.87
2023-03-31T15:17:37.881Z,90.13
2023-03-31T15:20:26.060Z,90.32
2023-03-31T15:22:53.760Z,90.42
2023-03-31T15:25:22.482Z,90.18
2023-03-31T15:28:03.067Z,90.46
2023-03-31T15:30:31.118Z,90.56
2023-03-31T15:35:47.041Z,90.77
2023-03-31T15:38:19.750Z,90.79
2023-03-31T15:40:53.763Z,90.90
2023-03-31T15:43:32.427Z,91.21
2023-03-31T15:46:02.951Z,91.32
2023-03-31T15:48:34.325Z,91.45
2023-03-31T15:51:02.806Z,91.82
2023-03-31T15:53:37.953Z,91.79
2023-03-31T15:56:05.454Z,91.87
2023-03-31T15:58:55.478Z,92.42
2023-03-31T16:01:23.568Z,92.52
2023-03-31T16:03:53.872Z,92.82
2023-03-31T16:06:24.186Z,92.85
2023-03-31T16:09:09.099Z,93.01
2023-03-31T16:11:49.411Z,93.30
2023-03-31T16:14:24.141Z,93.31
2023-03-31T16:16:57.379Z,93.34
2023-03-31T16:19:25.592Z,93.42
2023-03-31T16:21:55.187Z,93.54
2023-03-31T16:24:30.284Z,93.55
2023-03-31T16:27:08.954Z,93.84
2023-03-31T16:29:37.752Z,94.00
2023-03-31T16:32:13.415Z,94.05
2023-03-31T16:35:02.797Z,93.79
2023-03-31T16:37:33.796Z,93.91
2023-03-31T16:40:01.631Z,94.18
2023-03-31T16:42:29.041Z,93.84
2023-03-31T16:45:13.138Z,94.11
2023-03-31T16:47:54.816Z,94.26
2023-03-31T16:50:25.148Z,94.25
2023-03-31T16:53:22.079Z,94.62
2023-03-31T16:55:52.214Z,94.59
2023-03-31T16:58:51.891Z,94.78
2023-03-31T17:01:22.935Z,94.88
2023-03-31T17:06:43.427Z,94.74
2023-03-31T17:12:00.126Z,95.06
2023-03-31T17:14:38.319Z,94.93
2023-03-31T17:17:05.627Z,95.34
2023-03-31T17:19:34.906Z,95.33
2023-03-31T17:22:04.519Z,95.47
2023-03-31T17:24:34.439Z,95.82
2023-03-31T17:27:16.833Z,95.94
2023-03-31T17:29:44.243Z,95.97
2023-03-31T17:32:14.996Z,95.85
2023-03-31T17:34:42.830Z,95.87
2023-03-31T17:37:11.163Z,96.05
2023-03-31T17:39:38.859Z,96.03
2023-03-31T17:42:10.466Z,96.32
2023-03-31T17:44:40.967Z,96.24
2023-03-31T17:47:21.599Z,96.22
2023-03-31T17:49:59.969Z,96.26
2023-03-31T17:52:45.696Z,96.52
2023-03-31T17:55:16.124Z,96.59
2023-03-31T17:57:46.369Z,96.55
2023-03-31T18:00:21.598Z,96.46
2023-03-31T18:02:51.352Z,96.47
2023-03-31T18:05:22.528Z,96.66
2023-03-31T18:07:52.296Z,96.65
2023-03-31T18:10:22.375Z,96.70
2023-03-31T18:12:52.028Z,96.69
2023-03-31T18:15:22.599Z,96.84
2023-03-31T18:17:50.771Z,96.53
2023-03-31T18:20:29.304Z,96.51
2023-03-31T18:22:59.248Z,96.65
2023-03-31T18:25:33.414Z,96.55
2023-03-31T18:28:04.294Z,96.34
2023-03-31T18:34:45.818Z,95.97
2023-03-31T18:37:36.698Z,96.22
2023-03-31T18:40:08.008Z,96.25
2023-03-31T18:42:46.064Z,96.27
2023-03-31T18:45:18.230Z,96.41
2023-03-31T18:47:51.034Z,96.22
2023-03-31T18:50:33.484Z,96.38
2023-03-31T18:53:19.534Z,96.49
2023-03-31T18:56:13.864Z,96.38
2023-03-31T18:58:52.328Z,96.53
2023-03-31T19:01:29.650Z,96.32
2023-03-31T19:07:45.722Z,96.25
2023-03-31T19:10:14.601Z,95.90
2023-03-31T19:12:49.338Z,95.82
2023-03-31T19:15:16.697Z,95.84
2023-03-31T19:17:48.324Z,95.94
2023-03-31T19:20:21.723Z,95.87
2023-03-31T19:22:52.373Z,95.72
2023-03-31T19:25:24.638Z,96.13
2023-03-31T19:28:02.128Z,96.31
2023-03-31T19:30:29.395Z,96.22
2023-03-31T19:32:56.942Z,96.33
2023-03-31T19:35:29.599Z,96.15
2023-03-31T19:37:57.796Z,96.39
2023-03-31T19:40:33.680Z,96.05
2023-03-31T19:43:27.222Z,96.55
2023-03-31T19:45:57.741Z,96.60
2023-03-31T19:48:28.336Z,96.46
2023-03-31T19:51:04.482Z,96.50
2023-03-31T19:53:43.787Z,96.35
2023-03-31T19:56:19.790Z,96.69
2023-03-31T19:58:48.400Z,96.66
2023-03-31T20:01:19.418Z,96.74
2023-03-31T20:03:47.052Z,96.73
2023-03-31T20:06:15.244Z,96.69
2023-03-31T20:08:44.952Z,96.63
2023-03-31T20:11:14.359Z,96.65
2023-03-31T20:13:42.925Z,96.60
2023-03-31T20:16:20.552Z,96.71
2023-03-31T20:19:02.388Z,96.48
2023-03-31T20:21:40.933Z,96.45
2023-03-31T20:24:08.657Z,96.66
2023-03-31T20:26:35.823Z,96.76
2023-03-31T20:29:03.934Z,96.62
2023-03-31T20:31:37.632Z,96.57
2023-03-31T20:34:06.823Z,96.67
2023-03-31T20:36:33.985Z,96.66
2023-03-31T20:39:05.724Z,96.60
2023-03-31T20:41:33.904Z,96.67
2023-03-31T20:44:01.743Z,96.75
2023-03-31T20:46:29.677Z,96.93
2023-03-31T20:48:58.209Z,96.47
2023-03-31T20:51:30.831Z,96.51
2023-03-31T20:54:02.073Z,96.64
2023-03-31T20:56:31.962Z,97.05
2023-03-31T20:58:59.908Z,97.06
2023-03-31T21:01:30.162Z,97.11
2023-03-31T21:04:02.219Z,96.82
2023-03-31T21:06:32.800Z,96.88
2023-03-31T21:09:00.146Z,96.58
2023-03-31T21:11:27.700Z,96.47
2023-03-31T21:13:54.894Z,96.50
2023-03-31T21:16:22.563Z,96.27
2023-03-31T21:18:55.125Z,96.17
2023-03-31T21:21:24.630Z,96.54
2023-03-31T21:23:52.360Z,96.26
2023-03-31T21:26:20.887Z,96.33
2023-03-31T21:28:50.078Z,96.61
2023-03-31T21:31:18.916Z,96.55
2023-03-31T21:33:47.153Z,96.90
2023-03-31T21:36:16.577Z,96.78
2023-03-31T21:38:44.826Z,97.14
2023-03-31T21:41:19.376Z,96.90
2023-03-31T21:43:47.237Z,97.13
2023-03-31T21:46:24.409Z,97.23
2023-03-31T21:48:51.578Z,97.03
2023-03-31T21:51:22.000Z,97.25
2023-03-31T21:53:50.181Z,97.46
2023-03-31T21:56:17.734Z,97.74
2023-03-31T21:58:44.809Z,97.79
2023-03-31T22:01:12.326Z,98.06
2023-03-31T22:03:41.361Z,98.18
2023-03-31T22:06:10.006Z,98.53
2023-03-31T22:08:39.079Z,98.75
2023-03-31T22:11:07.684Z,98.91
2023-03-31T22:13:36.537Z,98.89
2023-03-31T22:16:05.104Z,99.33
2023-03-31T22:18:32.415Z,99.62
2023-03-31T22:21:01.020Z,99.79
2023-03-31T22:23:28.048Z,99.98
2023-03-31T22:25:55.613Z,100.00
2023-03-31T22:28:22.614Z,100.00
2023-03-31T22:30:49.618Z,100.00
2023-03-31T22:33:16.827Z,100.00
2023-03-31T22:35:44.364Z,100.00
2023-03-31T22:38:14.014Z,100.00
2023-03-31T22:40:41.473Z,100.00
2023-03-31T22:43:08.736Z,100.00
2023-03-31T22:45:38.006Z,100.00
2023-03-31T22:48:07.292Z,100.00
2023-03-31T22:50:34.490Z,100.00
2023-03-31T22:53:04.420Z,100.00
2023-03-31T22:55:33.836Z,100.00
2023-03-31T22:58:01.544Z,100.00
2023-03-31T23:01:01.233Z,100.00
2023-03-31T23:03:28.431Z,100.00
2023-03-31T23:05:55.373Z,100.00
2023-03-31T23:08:23.054Z,100.00
2023-03-31T23:11:00.045Z,100.00
2023-03-31T23:13:28.375Z,100.00
2023-03-31T23:15:58.412Z,100.00
2023-03-31T23:18:25.777Z,100.00
2023-03-31T23:20:52.759Z,100.00
2023-03-31T23:23:19.741Z,100.00
2023-03-31T23:25:46.676Z,100.00
2023-03-31T23:28:13.807Z,100.00
2023-03-31T23:30:41.376Z,100.00
2023-03-31T23:33:09.727Z,100.00
2023-03-31T23:35:36.850Z,100.00
2023-03-31T23:38:05.062Z,100.00
2023-03-31T23:40:31.993Z,100.00
2023-03-31T23:42:59.022Z,100.00
2023-03-31T23:45:25.857Z,100.00
2023-03-31T23:47:52.900Z,100.00
2023-03-31T23:50:19.959Z,100.00
2023-03-31T23:52:47.115Z,100.00
2023-03-31T23:55:14.055Z,100.00
2023-03-31T23:57:41.536Z,100.00
